createdAt,value
2022-12-12T00:02:39.810Z,70.09
2022-12-12T00:05:22.773Z,70.38
2022-12-12T00:08:06.003Z,70.35
2022-12-12T00:10:48.910Z,70.43
2022-12-12T00:13:31.805Z,70.40
2022-12-12T00:16:15.157Z,70.66
2022-12-12T00:18:59.451Z,70.45
2022-12-12T00:21:42.202Z,70.48
2022-12-12T00:24:25.105Z,70.71
2022-12-12T00:27:08.120Z,70.25
2022-12-12T00:29:53.320Z,70.35
2022-12-12T00:32:36.187Z,70.20
2022-12-12T00:35:20.477Z,69.85
2022-12-12T00:38:03.142Z,70.02
2022-12-12T00:40:47.121Z,70.47
2022-12-12T00:43:30.008Z,70.41
2022-12-12T00:46:15.366Z,70.01
2022-12-12T00:49:00.266Z,70.33
2022-12-12T00:51:45.053Z,70.36
2022-12-12T00:54:27.913Z,70.51
2022-12-12T00:57:10.793Z,70.30
2022-12-12T00:59:53.667Z,70.18
2022-12-12T01:02:36.831Z,70.17
2022-12-12T01:05:20.180Z,70.36
2022-12-12T01:08:04.528Z,70.55
2022-12-12T01:10:47.671Z,70.46
2022-12-12T01:13:30.501Z,70.38
2022-12-12T01:16:13.887Z,70.23
2022-12-12T01:18:56.954Z,70.03
2022-12-12T01:21:39.882Z,70.09
2022-12-12T01:24:24.168Z,70.11
2022-12-12T01:27:06.887Z,70.42
2022-12-12T01:29:50.403Z,70.41
2022-12-12T01:32:33.383Z,70.15
2022-12-12T01:35:16.346Z,70.35
2022-12-12T01:37:59.190Z,70.54
2022-12-12T01:40:43.468Z,70.40
2022-12-12T01:43:26.512Z,70.25
2022-12-12T01:46:35.143Z,70.19
2022-12-12T01:49:23.271Z,70.18
2022-12-12T01:52:09.876Z,70.12
2022-12-12T01:54:56.085Z,69.83
2022-12-12T01:57:46.882Z,70.11
2022-12-12T02:00:29.821Z,70.04
2022-12-12T02:03:13.258Z,70.39
2022-12-12T02:06:00.635Z,70.00
2022-12-12T02:08:44.218Z,69.55
2022-12-12T02:11:28.801Z,69.51
2022-12-12T02:14:14.696Z,69.68
2022-12-12T02:17:25.523Z,69.80
2022-12-12T02:20:44.201Z,69.74
2022-12-12T02:24:20.508Z,69.83
2022-12-12T02:27:39.809Z,69.52
2022-12-12T02:30:25.829Z,69.86
2022-12-12T02:33:29.020Z,70.04
2022-12-12T02:36:20.060Z,70.09
2022-12-12T02:39:11.192Z,69.79
2022-12-12T02:42:00.294Z,69.86
2022-12-12T02:44:50.474Z,69.95
2022-12-12T02:47:40.537Z,70.17
2022-12-12T02:50:27.360Z,70.18
2022-12-12T02:53:10.921Z,70.04
2022-12-12T02:56:03.035Z,69.84
2022-12-12T02:58:45.927Z,69.87
2022-12-12T03:01:40.199Z,69.59
2022-12-12T03:04:46.890Z,69.39
2022-12-12T03:07:51.971Z,69.83
2022-12-12T03:10:48.759Z,69.90
2022-12-12T03:13:39.549Z,69.92
2022-12-12T03:16:28.647Z,69.77
2022-12-12T03:19:24.215Z,69.97
2022-12-12T03:22:12.704Z,70.22
2022-12-12T03:25:04.889Z,70.18
2022-12-12T03:27:53.847Z,70.22
2022-12-12T03:30:43.880Z,70.36
2022-12-12T03:33:31.159Z,70.14
2022-12-12T03:36:18.994Z,69.77
2022-12-12T03:39:07.964Z,69.86
2022-12-12T03:41:58.067Z,69.85
2022-12-12T03:44:46.114Z,69.63
2022-12-12T03:47:34.451Z,69.77
2022-12-12T03:50:20.988Z,69.79
2022-12-12T03:53:09.871Z,69.70
2022-12-12T03:55:57.738Z,69.85
2022-12-12T03:58:48.395Z,69.57
2022-12-12T04:01:39.407Z,69.79
2022-12-12T04:04:30.368Z,69.71
2022-12-12T04:07:18.174Z,70.10
2022-12-12T04:10:18.812Z,69.98
2022-12-12T04:13:11.908Z,69.93
2022-12-12T04:16:03.634Z,70.39
2022-12-12T04:18:54.807Z,70.29
2022-12-12T04:22:00.872Z,70.35
2022-12-12T04:24:47.736Z,70.28
2022-12-12T04:27:36.139Z,70.31
2022-12-12T04:30:19.454Z,70.39
2022-12-12T04:33:10.441Z,70.56
2022-12-12T04:35:55.553Z,70.69
2022-12-12T04:38:39.948Z,70.53
2022-12-12T04:41:24.110Z,70.81
2022-12-12T04:44:08.576Z,70.90
2022-12-12T04:46:54.557Z,70.63
2022-12-12T04:49:43.141Z,70.31
2022-12-12T04:52:28.963Z,70.18
2022-12-12T04:55:16.515Z,70.14
2022-12-12T04:57:59.609Z,69.93
2022-12-12T05:00:48.756Z,70.06
2022-12-12T05:03:42.455Z,70.10
2022-12-12T05:06:32.540Z,70.29
2022-12-12T05:09:18.655Z,70.17
2022-12-12T05:12:01.467Z,70.19
2022-12-12T05:14:44.442Z,70.41
2022-12-12T05:17:36.355Z,70.40
2022-12-12T05:20:19.476Z,70.50
2022-12-12T05:23:04.119Z,70.44
2022-12-12T05:25:47.118Z,70.63
2022-12-12T05:28:29.984Z,70.51
2022-12-12T05:31:12.873Z,70.50
2022-12-12T05:33:55.867Z,70.54
2022-12-12T05:36:38.750Z,70.58
2022-12-12T05:39:23.006Z,70.55
2022-12-12T05:42:05.879Z,70.71
2022-12-12T05:44:48.721Z,70.95
2022-12-12T05:47:31.617Z,71.01
2022-12-12T05:50:14.705Z,70.87
2022-12-12T05:52:57.569Z,70.68
2022-12-12T05:55:41.865Z,70.65
2022-12-12T05:58:24.811Z,70.71
2022-12-12T06:01:08.254Z,70.69
2022-12-12T06:03:51.259Z,70.51
2022-12-12T06:06:34.277Z,70.50
2022-12-12T06:09:17.954Z,70.54
2022-12-12T06:12:02.131Z,70.39
2022-12-12T06:14:44.952Z,70.49
2022-12-12T06:17:32.936Z,70.46
2022-12-12T06:20:16.345Z,70.50
2022-12-12T06:22:59.433Z,70.79
2022-12-12T06:25:42.340Z,70.55
2022-12-12T06:28:26.534Z,70.66
2022-12-12T06:31:12.186Z,70.54
2022-12-12T06:33:55.355Z,70.66
2022-12-12T06:36:38.342Z,70.72
2022-12-12T06:39:21.203Z,70.63
2022-12-12T06:42:04.162Z,70.18
2022-12-12T06:44:48.474Z,70.58
2022-12-12T06:47:31.304Z,70.64
2022-12-12T06:50:16.777Z,70.75
2022-12-12T06:53:03.292Z,70.52
2022-12-12T06:55:46.235Z,70.63
2022-12-12T06:58:29.132Z,71.09
2022-12-12T07:01:14.388Z,71.17
2022-12-12T07:03:57.432Z,71.44
2022-12-12T07:06:40.387Z,71.29
2022-12-12T07:09:23.244Z,71.26
2022-12-12T07:12:06.331Z,71.60
2022-12-12T07:14:49.173Z,71.52
2022-12-12T07:17:33.373Z,71.03
2022-12-12T07:20:16.385Z,71.63
2022-12-12T07:22:59.367Z,71.59
2022-12-12T07:25:44.593Z,71.66
2022-12-12T07:28:27.745Z,71.50
2022-12-12T07:31:12.356Z,71.42
2022-12-12T07:33:56.596Z,71.19
2022-12-12T07:36:39.412Z,70.69
2022-12-12T07:39:22.249Z,70.75
2022-12-12T07:42:05.487Z,70.81
2022-12-12T07:44:48.314Z,70.96
2022-12-12T07:47:31.139Z,70.46
2022-12-12T07:50:15.377Z,70.43
2022-12-12T07:52:58.213Z,70.31
2022-12-12T07:55:41.884Z,70.23
2022-12-12T07:58:24.882Z,70.29
2022-12-12T08:01:14.825Z,70.32
2022-12-12T08:03:58.142Z,70.14
2022-12-12T08:06:42.350Z,69.93
2022-12-12T08:09:25.649Z,69.81
2022-12-12T08:12:08.877Z,70.03
2022-12-12T08:14:51.746Z,69.71
2022-12-12T08:17:34.590Z,69.51
2022-12-12T08:20:18.142Z,69.55
2022-12-12T08:23:02.310Z,69.50
2022-12-12T08:25:45.175Z,69.43
2022-12-12T08:28:28.007Z,69.16
2022-12-12T08:31:11.624Z,69.21
2022-12-12T08:33:54.774Z,69.27
2022-12-12T08:36:37.947Z,68.83
2022-12-12T08:39:22.644Z,68.77
2022-12-12T08:42:05.878Z,68.04
2022-12-12T08:44:50.057Z,67.75
2022-12-12T08:47:32.728Z,66.51
2022-12-12T08:50:15.535Z,67.54
2022-12-12T08:52:58.419Z,67.76
2022-12-12T08:55:42.594Z,68.17
2022-12-12T08:58:25.251Z,67.26
2022-12-12T09:01:11.701Z,66.97
2022-12-12T09:03:56.711Z,65.89
2022-12-12T09:06:39.599Z,64.98
2022-12-12T09:09:22.427Z,65.26
2022-12-12T09:12:07.191Z,64.44
2022-12-12T09:14:50.169Z,63.93
2022-12-12T09:17:33.013Z,65.16
2022-12-12T09:20:15.914Z,65.13
2022-12-12T09:22:59.077Z,65.31
2022-12-12T09:25:42.780Z,64.61
2022-12-12T09:28:27.682Z,63.84
2022-12-12T09:31:12.847Z,63.68
2022-12-12T09:33:55.814Z,63.82
2022-12-12T09:36:38.681Z,63.64
2022-12-12T09:39:21.488Z,62.93
2022-12-12T09:42:11.844Z,62.67
2022-12-12T09:45:00.759Z,62.61
2022-12-12T09:47:46.641Z,62.54
2022-12-12T09:50:34.346Z,61.99
2022-12-12T09:53:20.907Z,61.67
2022-12-12T09:56:10.932Z,61.39
2022-12-12T09:58:58.511Z,62.23
2022-12-12T10:01:59.194Z,62.57
2022-12-12T10:04:50.905Z,61.92
2022-12-12T10:07:41.379Z,62.52
2022-12-12T10:10:27.869Z,62.32
2022-12-12T10:13:16.935Z,61.66
2022-12-12T10:16:06.008Z,61.26
2022-12-12T10:18:53.408Z,61.54
2022-12-12T10:21:41.092Z,61.39
2022-12-12T10:24:31.266Z,61.66
2022-12-12T10:27:15.787Z,60.21
2022-12-12T10:30:08.023Z,60.12
2022-12-12T10:33:10.073Z,60.22
2022-12-12T10:36:04.564Z,60.11
2022-12-12T10:39:04.627Z,59.65
2022-12-12T10:41:52.941Z,60.07
2022-12-12T10:44:55.568Z,59.68
2022-12-12T10:47:38.487Z,58.79
2022-12-12T10:50:28.107Z,58.69
2022-12-12T10:53:13.517Z,59.38
2022-12-12T10:56:00.119Z,59.17
2022-12-12T10:58:45.054Z,58.79
2022-12-12T11:02:07.741Z,59.02
2022-12-12T11:04:34.013Z,59.71
2022-12-12T11:07:21.854Z,58.96
2022-12-12T11:10:21.444Z,57.82
2022-12-12T11:13:15.967Z,57.05
2022-12-12T11:16:01.892Z,57.92
2022-12-12T11:18:59.514Z,58.31
2022-12-12T11:21:42.918Z,58.36
2022-12-12T11:24:33.421Z,58.69
2022-12-12T11:27:23.632Z,59.02
2022-12-12T11:30:09.091Z,59.50
2022-12-12T11:32:55.630Z,59.39
2022-12-12T11:35:47.280Z,59.33
2022-12-12T11:38:36.722Z,59.93
2022-12-12T11:41:19.694Z,59.35
2022-12-12T11:44:03.886Z,59.68
2022-12-12T11:46:46.726Z,59.67
2022-12-12T11:49:29.585Z,59.27
2022-12-12T11:52:19.829Z,58.69
2022-12-12T11:55:02.796Z,59.28
2022-12-12T11:58:04.177Z,58.93
2022-12-12T12:00:58.267Z,58.21
2022-12-12T12:04:12.112Z,57.87
2022-12-12T12:07:22.652Z,59.53
2022-12-12T12:10:18.379Z,58.92
2022-12-12T12:13:16.377Z,59.37
2022-12-12T12:16:09.120Z,59.00
2022-12-12T12:19:04.138Z,58.92
2022-12-12T12:21:59.741Z,58.21
2022-12-12T12:24:58.326Z,58.29
2022-12-12T12:27:48.637Z,57.50
2022-12-12T12:30:38.022Z,57.11
2022-12-12T12:33:40.018Z,56.05
2022-12-12T12:36:25.106Z,56.20
2022-12-12T12:39:24.517Z,56.36
2022-12-12T12:42:20.901Z,56.34
2022-12-12T12:45:15.270Z,56.76
2022-12-12T12:48:08.780Z,56.90
2022-12-12T12:51:04.141Z,56.96
2022-12-12T12:53:52.617Z,57.24
2022-12-12T12:56:43.778Z,57.40
2022-12-12T12:59:34.182Z,57.71
2022-12-12T13:02:27.279Z,58.32
2022-12-12T13:05:16.956Z,58.57
2022-12-12T13:08:11.617Z,58.57
2022-12-12T13:10:56.537Z,58.35
2022-12-12T13:13:43.616Z,58.48
2022-12-12T13:16:32.652Z,58.37
2022-12-12T13:19:22.409Z,58.15
2022-12-12T13:22:11.051Z,58.00
2022-12-12T13:25:01.202Z,57.38
2022-12-12T13:27:49.910Z,58.01
2022-12-12T13:30:45.026Z,57.89
2022-12-12T13:33:43.391Z,57.32
2022-12-12T13:36:30.238Z,57.37
2022-12-12T13:39:27.568Z,57.37
2022-12-12T13:42:13.026Z,57.14
2022-12-12T13:44:55.845Z,57.34
2022-12-12T13:48:01.403Z,57.43
2022-12-12T13:50:44.353Z,57.93
2022-12-12T13:53:27.287Z,58.40
2022-12-12T13:56:35.525Z,58.73
2022-12-12T13:59:31.598Z,58.86
2022-12-12T14:02:30.264Z,58.65
2022-12-12T14:05:16.813Z,58.64
2022-12-12T14:08:07.413Z,59.00
2022-12-12T14:11:01.316Z,59.10
2022-12-12T14:13:47.339Z,59.28
2022-12-12T14:16:31.816Z,58.99
2022-12-12T14:19:34.407Z,58.87
2022-12-12T14:22:28.184Z,58.83
2022-12-12T14:25:20.849Z,58.75
2022-12-12T14:28:20.606Z,59.01
2022-12-12T14:31:10.855Z,59.25
2022-12-12T14:34:27.465Z,58.97
2022-12-12T14:37:40.080Z,59.23
2022-12-12T14:40:25.388Z,59.49
2022-12-12T14:43:19.937Z,59.62
2022-12-12T14:46:05.807Z,59.74
2022-12-12T14:48:48.722Z,59.79
2022-12-12T14:51:37.147Z,60.00
2022-12-12T14:54:22.102Z,60.33
2022-12-12T14:57:08.687Z,60.40
2022-12-12T14:59:51.864Z,60.59
2022-12-12T15:02:39.086Z,60.69
2022-12-12T15:05:22.152Z,60.72
2022-12-12T15:08:06.663Z,60.99
2022-12-12T15:10:59.537Z,60.82
2022-12-12T15:13:50.976Z,61.25
2022-12-12T15:16:45.917Z,61.54
2022-12-12T15:19:33.687Z,61.63
2022-12-12T15:22:24.394Z,61.64
2022-12-12T15:25:17.724Z,61.63
2022-12-12T15:28:01.610Z,61.70
2022-12-12T15:30:46.116Z,61.43
2022-12-12T15:33:29.417Z,61.70
2022-12-12T15:36:24.806Z,61.84
2022-12-12T15:39:16.231Z,61.85
2022-12-12T15:42:00.652Z,62.08
2022-12-12T15:44:45.271Z,62.01
2022-12-12T15:47:29.463Z,61.96
2022-12-12T15:50:19.260Z,61.80
2022-12-12T15:53:16.126Z,61.87
2022-12-12T15:56:02.623Z,61.88
2022-12-12T15:58:50.509Z,62.27
2022-12-12T16:01:33.852Z,62.35
2022-12-12T16:04:26.549Z,62.30
2022-12-12T16:07:21.219Z,62.33
2022-12-12T16:10:06.196Z,62.32
2022-12-12T16:12:59.081Z,62.42
2022-12-12T16:15:43.268Z,62.45
2022-12-12T16:18:26.264Z,62.63
2022-12-12T16:21:09.900Z,62.59
2022-12-12T16:23:52.782Z,62.62
2022-12-12T16:26:35.654Z,62.63
2022-12-12T16:29:18.695Z,62.57
2022-12-12T16:32:02.928Z,62.71
2022-12-12T16:34:46.266Z,62.55
2022-12-12T16:37:29.137Z,62.66
2022-12-12T16:40:14.943Z,62.57
2022-12-12T16:43:09.329Z,62.57
2022-12-12T16:45:55.568Z,62.57
2022-12-12T16:48:40.001Z,62.65
2022-12-12T16:51:29.037Z,62.48
2022-12-12T16:54:17.015Z,62.73
2022-12-12T16:56:59.855Z,62.97
2022-12-12T16:59:43.004Z,62.96
2022-12-12T17:02:26.202Z,62.96
2022-12-12T17:05:17.477Z,63.05
2022-12-12T17:08:00.388Z,63.08
2022-12-12T17:10:44.018Z,63.19
2022-12-12T17:13:27.422Z,63.25
2022-12-12T17:16:10.322Z,63.30
2022-12-12T17:18:53.230Z,63.41
2022-12-12T17:21:37.445Z,63.28
2022-12-12T17:24:20.586Z,63.26
2022-12-12T17:27:04.337Z,62.86
2022-12-12T17:29:47.160Z,62.79
2022-12-12T17:32:30.369Z,62.53
2022-12-12T17:35:13.451Z,62.26
2022-12-12T17:37:58.978Z,62.21
2022-12-12T17:40:43.809Z,62.67
2022-12-12T17:43:27.182Z,62.85
2022-12-12T17:46:14.541Z,63.13
2022-12-12T17:48:58.762Z,63.08
2022-12-12T17:51:41.643Z,62.30
2022-12-12T17:54:25.867Z,62.52
2022-12-12T17:57:08.866Z,62.87
2022-12-12T17:59:51.705Z,63.04
2022-12-12T18:02:34.918Z,62.89
2022-12-12T18:05:19.560Z,62.45
2022-12-12T18:08:02.512Z,62.72
2022-12-12T18:10:46.788Z,62.79
2022-12-12T18:13:29.425Z,62.58
2022-12-12T18:16:13.861Z,62.81
2022-12-12T18:18:57.215Z,62.75
2022-12-12T18:24:42.930Z,63.21
2022-12-12T18:27:27.098Z,63.13
2022-12-12T18:30:11.686Z,63.19
2022-12-12T18:32:58.400Z,62.85
2022-12-12T18:35:45.557Z,62.70
2022-12-12T18:38:28.803Z,62.84
2022-12-12T18:41:12.190Z,62.76
2022-12-12T18:43:56.786Z,62.94
2022-12-12T18:46:43.195Z,62.99
2022-12-12T18:49:26.422Z,62.71
2022-12-12T18:52:09.440Z,62.87
2022-12-12T18:54:52.927Z,63.13
2022-12-12T18:57:35.773Z,63.25
2022-12-12T19:00:20.405Z,63.24
2022-12-12T19:03:03.246Z,63.09
2022-12-12T19:05:46.197Z,62.85
2022-12-12T19:08:29.161Z,62.76
2022-12-12T19:11:13.555Z,63.01
2022-12-12T19:13:56.442Z,63.38
2022-12-12T19:16:40.813Z,63.28
2022-12-12T19:19:23.724Z,63.17
2022-12-12T19:22:24.952Z,63.17
2022-12-12T19:25:10.589Z,63.22
2022-12-12T19:27:53.441Z,63.11
2022-12-12T19:30:38.619Z,63.41
2022-12-12T19:33:22.948Z,63.48
2022-12-12T19:36:12.588Z,63.41
2022-12-12T19:38:58.150Z,62.86
2022-12-12T19:41:41.586Z,63.17
2022-12-12T19:44:24.447Z,63.15
2022-12-12T19:47:07.364Z,63.12
2022-12-12T19:49:51.695Z,63.04
2022-12-12T19:52:34.559Z,63.05
2022-12-12T19:55:17.805Z,63.22
2022-12-12T19:58:02.501Z,63.31
2022-12-12T20:00:45.356Z,63.44
2022-12-12T20:03:28.171Z,63.57
2022-12-12T20:06:12.931Z,63.68
2022-12-12T20:08:56.630Z,63.71
2022-12-12T20:11:40.018Z,63.79
2022-12-12T20:14:25.103Z,63.85
2022-12-12T20:17:07.956Z,63.92
2022-12-12T20:19:50.816Z,63.95
2022-12-12T20:22:35.053Z,64.18
2022-12-12T20:25:17.977Z,64.30
2022-12-12T20:28:00.833Z,64.34
2022-12-12T20:30:43.714Z,64.57
2022-12-12T20:33:26.613Z,64.36
2022-12-12T20:36:12.074Z,64.64
2022-12-12T20:38:57.812Z,64.65
2022-12-12T20:41:41.372Z,64.70
2022-12-12T20:44:25.546Z,64.84
2022-12-12T20:47:14.181Z,65.19
2022-12-12T20:49:57.014Z,65.51
2022-12-12T20:52:41.015Z,65.44
2022-12-12T20:55:25.166Z,65.48
2022-12-12T20:58:08.044Z,65.66
2022-12-12T21:00:50.885Z,65.77
2022-12-12T21:03:34.181Z,65.83
2022-12-12T21:06:19.696Z,65.78
2022-12-12T21:09:04.310Z,66.02
2022-12-12T21:11:48.639Z,66.00
2022-12-12T21:14:33.017Z,65.77
2022-12-12T21:17:15.949Z,66.00
2022-12-12T21:20:04.675Z,65.92
2022-12-12T21:22:49.283Z,66.41
2022-12-12T21:25:32.126Z,66.44
2022-12-12T21:28:16.379Z,66.31
2022-12-12T21:31:00.505Z,66.23
2022-12-12T21:33:43.266Z,66.26
2022-12-12T21:36:27.887Z,66.39
2022-12-12T21:39:10.783Z,66.50
2022-12-12T21:41:53.992Z,66.48
2022-12-12T21:44:45.345Z,66.78
2022-12-12T21:47:28.592Z,66.82
2022-12-12T21:50:12.595Z,66.76
2022-12-12T21:53:12.692Z,66.59
2022-12-12T21:55:59.193Z,66.58
2022-12-12T21:58:44.712Z,66.41
2022-12-12T22:01:28.951Z,66.36
2022-12-12T22:04:13.008Z,66.73
2022-12-12T22:06:57.139Z,66.30
2022-12-12T22:09:40.295Z,66.29
2022-12-12T22:12:23.134Z,66.33
2022-12-12T22:15:06.955Z,66.27
2022-12-12T22:17:51.246Z,66.04
2022-12-12T22:20:35.652Z,65.92
2022-12-12T22:23:18.582Z,66.01
2022-12-12T22:26:01.481Z,66.01
2022-12-12T22:28:44.753Z,66.03
2022-12-12T22:31:29.448Z,67.03
2022-12-12T22:34:16.602Z,66.79
2022-12-12T22:36:59.428Z,67.17
2022-12-12T22:39:42.228Z,67.88
2022-12-12T22:42:25.409Z,67.55
2022-12-12T22:45:09.159Z,66.82
2022-12-12T22:47:52.107Z,66.38
2022-12-12T22:50:36.286Z,66.26
2022-12-12T22:53:19.145Z,66.32
2022-12-12T22:56:02.606Z,66.39
2022-12-12T22:58:45.544Z,66.47
2022-12-12T23:01:29.391Z,66.68
2022-12-12T23:04:13.823Z,66.47
2022-12-12T23:06:58.183Z,66.31
2022-12-12T23:09:52.238Z,66.70
2022-12-12T23:12:35.155Z,66.66
2022-12-12T23:15:18.422Z,66.67
2022-12-12T23:18:01.269Z,66.79
2022-12-12T23:20:46.322Z,66.84
2022-12-12T23:23:31.830Z,66.91
2022-12-12T23:26:17.197Z,67.04
2022-12-12T23:29:00.556Z,66.99
2022-12-12T23:31:44.575Z,67.34
2022-12-12T23:34:27.664Z,67.61
2022-12-12T23:37:10.533Z,67.70
2022-12-12T23:39:54.741Z,67.77
2022-12-12T23:42:37.683Z,67.92
2022-12-12T23:45:20.546Z,67.76
2022-12-12T23:48:03.440Z,67.80
2022-12-12T23:50:46.404Z,67.89
2022-12-12T23:53:32.906Z,68.24
2022-12-12T23:56:17.843Z,69.40
2022-12-12T23:59:01.086Z,69.43
